createdAt,value
2019-05-14T00:00:32.368Z,1020.61
2019-05-14T00:01:32.383Z,1020.61
2019-05-14T00:02:32.399Z,1020.60
2019-05-14T00:03:32.548Z,1020.60
2019-05-14T00:04:32.429Z,1020.58
2019-05-14T00:05:32.445Z,1020.58
2019-05-14T00:06:32.457Z,1020.58
2019-05-14T00:07:32.472Z,1020.60
2019-05-14T00:08:32.484Z,1020.62
2019-05-14T00:09:32.502Z,1020.60
2019-05-14T00:10:32.515Z,1020.63
2019-05-14T00:11:32.532Z,1020.59
2019-05-14T00:12:32.545Z,1020.58
2019-05-14T00:13:32.556Z,1020.58
2019-05-14T00:14:39.536Z,1020.59
2019-05-14T00:15:32.589Z,1020.57
2019-05-14T00:16:32.603Z,1020.63
2019-05-14T00:17:32.623Z,1020.61
2019-05-14T00:18:32.630Z,1020.62
2019-05-14T00:19:32.647Z,1020.63
2019-05-14T00:20:32.663Z,1020.62
2019-05-14T00:21:32.680Z,1020.60
2019-05-14T00:22:32.690Z,1020.57
2019-05-14T00:23:32.702Z,1020.59
2019-05-14T00:24:32.722Z,1020.59
2019-05-14T00:25:32.736Z,1020.57
2019-05-14T00:26:32.746Z,1020.56
2019-05-14T00:27:32.763Z,1020.52
2019-05-14T00:28:32.776Z,1020.53
2019-05-14T00:29:32.982Z,1020.53
2019-05-14T00:30:32.809Z,1020.57
2019-05-14T00:31:32.824Z,1020.52
2019-05-14T00:32:32.838Z,1020.54
2019-05-14T00:33:32.853Z,1020.53
2019-05-14T00:34:32.869Z,1020.55
2019-05-14T00:35:35.703Z,1020.54
2019-05-14T00:36:32.892Z,1020.53
2019-05-14T00:37:32.911Z,1020.51
2019-05-14T00:38:32.932Z,1020.51
2019-05-14T00:39:32.940Z,1020.49
2019-05-14T00:40:32.955Z,1020.46
2019-05-14T00:41:32.967Z,1020.46
2019-05-14T00:42:32.981Z,1020.48
2019-05-14T00:43:32.996Z,1020.43
2019-05-14T00:44:33.007Z,1020.43
2019-05-14T00:45:33.046Z,1020.47
2019-05-14T00:46:33.042Z,1020.42
2019-05-14T00:47:33.058Z,1020.44
2019-05-14T00:48:33.070Z,1020.46
2019-05-14T00:49:33.262Z,1020.52
2019-05-14T00:50:33.096Z,1020.47
2019-05-14T00:51:33.109Z,1020.48
2019-05-14T00:52:33.122Z,1020.49
2019-05-14T00:53:33.136Z,1020.47
2019-05-14T00:54:33.155Z,1020.47
2019-05-14T00:55:33.169Z,1020.44
2019-05-14T00:56:33.208Z,1020.47
2019-05-14T00:57:33.198Z,1020.40
2019-05-14T00:58:33.214Z,1020.43
2019-05-14T00:59:33.225Z,1020.43
2019-05-14T01:00:33.241Z,1020.41
2019-05-14T01:01:33.257Z,1020.42
2019-05-14T01:02:33.271Z,1020.41
2019-05-14T01:03:33.281Z,1020.49
2019-05-14T01:04:33.295Z,1020.43
2019-05-14T01:05:33.312Z,1020.46
2019-05-14T01:06:33.326Z,1020.39
2019-05-14T01:07:33.345Z,1020.46
2019-05-14T01:08:33.354Z,1020.41
2019-05-14T01:09:33.368Z,1020.40
2019-05-14T01:10:33.379Z,1020.42
2019-05-14T01:11:33.396Z,1020.38
2019-05-14T01:12:33.408Z,1020.37
2019-05-14T01:13:33.423Z,1020.41
2019-05-14T01:14:33.438Z,1020.40
2019-05-14T01:15:33.454Z,1020.40
2019-05-14T01:16:33.469Z,1020.38
2019-05-14T01:17:33.488Z,1020.37
2019-05-14T01:18:33.500Z,1020.42
2019-05-14T01:19:33.511Z,1020.41
2019-05-14T01:20:33.526Z,1020.37
2019-05-14T01:21:33.539Z,1020.34
2019-05-14T01:22:33.560Z,1020.36
2019-05-14T01:23:33.569Z,1020.34
2019-05-14T01:24:33.582Z,1020.37
2019-05-14T01:25:33.599Z,1020.40
2019-05-14T01:26:33.610Z,1020.42
2019-05-14T01:27:33.636Z,1020.39
2019-05-14T01:28:33.637Z,1020.34
2019-05-14T01:29:33.659Z,1020.36
2019-05-14T01:30:33.669Z,1020.34
2019-05-14T01:31:33.686Z,1020.29
2019-05-14T01:32:33.693Z,1020.34
2019-05-14T01:33:33.709Z,1020.37
2019-05-14T01:34:33.725Z,1020.34
2019-05-14T01:35:33.737Z,1020.30
2019-05-14T01:36:33.757Z,1020.28
2019-05-14T01:37:33.798Z,1020.27
2019-05-14T01:38:33.913Z,1020.23
2019-05-14T01:39:33.799Z,1020.25
2019-05-14T01:40:33.813Z,1020.29
2019-05-14T01:41:33.826Z,1020.29
2019-05-14T01:42:33.838Z,1020.29
2019-05-14T01:43:33.850Z,1020.25
2019-05-14T01:44:33.868Z,1020.26
2019-05-14T01:45:33.879Z,1020.27
2019-05-14T01:46:33.894Z,1020.20
2019-05-14T01:47:33.907Z,1020.23
2019-05-14T01:48:33.923Z,1020.21
2019-05-14T01:49:33.940Z,1020.23
2019-05-14T01:50:33.952Z,1020.19
2019-05-14T01:51:33.969Z,1020.21
2019-05-14T01:52:33.974Z,1020.18
2019-05-14T01:53:34.008Z,1020.22
2019-05-14T01:54:34.010Z,1020.22
2019-05-14T01:55:34.022Z,1020.22
2019-05-14T01:56:34.032Z,1020.27
2019-05-14T01:57:34.049Z,1020.20
2019-05-14T01:58:34.062Z,1020.21
2019-05-14T01:59:34.072Z,1020.21
2019-05-14T02:00:34.088Z,1020.23
2019-05-14T02:01:34.106Z,1020.26
2019-05-14T02:02:34.115Z,1020.22
2019-05-14T02:03:34.132Z,1020.18
2019-05-14T02:04:34.143Z,1020.19
2019-05-14T02:05:34.160Z,1020.18
2019-05-14T02:06:34.169Z,1020.15
2019-05-14T02:07:34.185Z,1020.15
2019-05-14T02:08:34.200Z,1020.12
2019-05-14T02:09:34.211Z,1020.09
2019-05-14T02:10:34.228Z,1020.10
2019-05-14T02:11:34.241Z,1020.12
2019-05-14T02:12:34.257Z,1020.10
2019-05-14T02:13:34.423Z,1020.05
2019-05-14T02:14:34.282Z,1020.06
2019-05-14T02:15:39.564Z,1020.08
2019-05-14T02:16:34.310Z,1020.08
2019-05-14T02:17:34.324Z,1020.07
2019-05-14T02:18:34.344Z,1020.08
2019-05-14T02:19:34.353Z,1020.09
2019-05-14T02:20:34.368Z,1020.06
2019-05-14T02:21:34.384Z,1020.04
2019-05-14T02:22:34.392Z,1020.03
2019-05-14T02:23:34.407Z,1020.01
2019-05-14T02:24:34.421Z,1020.05
2019-05-14T02:25:34.438Z,1020.05
2019-05-14T02:26:34.450Z,1020.05
2019-05-14T02:27:34.969Z,1020.04
2019-05-14T02:28:34.477Z,1020.03
2019-05-14T02:29:34.490Z,1020.02
2019-05-14T02:30:48.255Z,1020.01
2019-05-14T02:31:34.517Z,1019.98
2019-05-14T02:32:34.531Z,1019.94
2019-05-14T02:33:34.548Z,1019.89
2019-05-14T02:34:34.562Z,1019.88
2019-05-14T02:35:34.577Z,1019.86
2019-05-14T02:36:34.593Z,1019.84
2019-05-14T02:37:34.603Z,1019.85
2019-05-14T02:38:34.619Z,1019.82
2019-05-14T02:39:34.631Z,1019.81
2019-05-14T02:40:34.652Z,1019.82
2019-05-14T02:41:34.662Z,1019.81
2019-05-14T02:42:34.677Z,1019.77
2019-05-14T02:43:34.689Z,1019.74
2019-05-14T02:44:34.704Z,1019.78
2019-05-14T02:45:34.721Z,1019.77
2019-05-14T02:46:34.737Z,1019.78
2019-05-14T02:47:34.747Z,1019.75
2019-05-14T02:48:34.797Z,1019.74
2019-05-14T02:49:34.777Z,1019.80
2019-05-14T02:50:34.793Z,1019.81
2019-05-14T02:51:34.807Z,1019.82
2019-05-14T02:52:34.825Z,1019.81
2019-05-14T02:53:34.838Z,1019.80
2019-05-14T02:54:34.855Z,1019.81
2019-05-14T02:55:34.864Z,1019.83
2019-05-14T02:56:34.881Z,1019.80
2019-05-14T02:57:34.898Z,1019.82
2019-05-14T02:58:34.915Z,1019.84
2019-05-14T02:59:34.924Z,1019.88
2019-05-14T03:00:34.937Z,1019.87
2019-05-14T03:01:34.956Z,1019.85
2019-05-14T03:02:34.970Z,1019.80
2019-05-14T03:03:34.984Z,1019.82
2019-05-14T03:04:34.999Z,1019.85
2019-05-14T03:05:35.012Z,1019.79
2019-05-14T03:06:35.038Z,1019.90
2019-05-14T03:07:35.044Z,1019.85
2019-05-14T03:08:35.056Z,1019.89
2019-05-14T03:09:35.072Z,1019.89
2019-05-14T03:10:35.088Z,1019.88
2019-05-14T03:11:35.100Z,1019.92
2019-05-14T03:12:35.120Z,1019.93
2019-05-14T03:13:35.131Z,1019.89
2019-05-14T03:14:35.143Z,1019.90
2019-05-14T03:15:35.156Z,1019.89
2019-05-14T03:16:35.964Z,1019.91
2019-05-14T03:17:35.190Z,1019.86
2019-05-14T03:18:35.358Z,1019.88
2019-05-14T03:19:35.265Z,1019.88
2019-05-14T03:20:35.229Z,1019.87
2019-05-14T03:21:35.245Z,1019.89
2019-05-14T03:22:52.594Z,1019.87
2019-05-14T03:23:35.276Z,1019.86
2019-05-14T03:24:35.290Z,1019.83
2019-05-14T03:25:35.302Z,1019.85
2019-05-14T03:26:35.321Z,1019.84
2019-05-14T03:27:35.333Z,1019.89
2019-05-14T03:28:35.350Z,1019.92
2019-05-14T03:29:35.361Z,1019.90
2019-05-14T03:30:35.383Z,1019.90
2019-05-14T03:31:35.405Z,1019.91
2019-05-14T03:32:35.407Z,1019.91
2019-05-14T03:33:35.431Z,1019.92
2019-05-14T03:34:41.862Z,1019.95
2019-05-14T03:35:44.609Z,1019.90
2019-05-14T03:36:35.841Z,1019.89
2019-05-14T03:37:35.484Z,1019.91
2019-05-14T03:38:35.496Z,1019.90
2019-05-14T03:39:35.509Z,1019.94
2019-05-14T03:40:35.525Z,1019.93
2019-05-14T03:41:35.545Z,1019.92
2019-05-14T03:42:35.552Z,1019.94
2019-05-14T03:43:38.897Z,1019.91
2019-05-14T03:44:35.583Z,1019.91
2019-05-14T03:45:38.895Z,1019.92
2019-05-14T03:46:45.700Z,1019.93
2019-05-14T03:47:39.123Z,1019.91
2019-05-14T03:48:35.643Z,1019.93
2019-05-14T03:49:35.661Z,1019.93
2019-05-14T03:50:38.737Z,1019.99
2019-05-14T03:51:35.688Z,1020.01
2019-05-14T03:52:35.700Z,1019.94
2019-05-14T03:53:52.297Z,1019.95
2019-05-14T03:54:35.728Z,1019.96
2019-05-14T03:55:35.769Z,1019.98
2019-05-14T03:56:39.212Z,1019.98
2019-05-14T03:57:35.850Z,1019.96
2019-05-14T03:58:39.132Z,1019.96
2019-05-14T03:59:35.983Z,1020.00
2019-05-14T04:00:38.869Z,1019.97
2019-05-14T04:01:35.859Z,1019.96
2019-05-14T04:02:38.914Z,1019.91
2019-05-14T04:03:35.892Z,1019.90
2019-05-14T04:04:39.080Z,1019.86
2019-05-14T04:05:36.001Z,1019.86
2019-05-14T04:06:35.912Z,1019.89
2019-05-14T04:07:39.111Z,1019.87
2019-05-14T04:08:38.892Z,1019.88
2019-05-14T04:09:35.951Z,1019.87
2019-05-14T04:10:39.108Z,1019.88
2019-05-14T04:11:35.982Z,1019.87
2019-05-14T04:12:36.001Z,1019.87
2019-05-14T04:13:36.074Z,1019.89
2019-05-14T04:14:36.080Z,1019.91
2019-05-14T04:15:39.045Z,1019.92
2019-05-14T04:16:36.060Z,1019.89
2019-05-14T04:17:40.964Z,1019.91
2019-05-14T04:18:39.771Z,1019.94
2019-05-14T04:19:39.182Z,1019.91
2019-05-14T04:20:39.123Z,1019.93
2019-05-14T04:21:36.131Z,1019.88
2019-05-14T04:22:39.093Z,1019.91
2019-05-14T04:23:39.317Z,1019.90
2019-05-14T04:24:38.097Z,1019.87
2019-05-14T04:25:38.990Z,1019.92
2019-05-14T04:26:53.479Z,1019.89
2019-05-14T04:27:36.221Z,1019.88
2019-05-14T04:28:39.237Z,1019.89
2019-05-14T04:29:39.430Z,1019.90
2019-05-14T04:30:39.710Z,1019.88
2019-05-14T04:31:39.053Z,1019.87
2019-05-14T04:32:39.286Z,1019.86
2019-05-14T04:33:38.937Z,1019.87
2019-05-14T04:34:39.476Z,1019.89
2019-05-14T04:35:39.882Z,1019.90
2019-05-14T04:36:39.129Z,1019.87
2019-05-14T04:37:39.644Z,1019.85
2019-05-14T04:38:36.397Z,1019.81
2019-05-14T04:39:39.267Z,1019.81
2019-05-14T04:40:36.427Z,1019.78
2019-05-14T04:41:39.373Z,1019.81
2019-05-14T04:42:39.868Z,1019.83
2019-05-14T04:43:39.604Z,1019.85
2019-05-14T04:44:40.025Z,1019.79
2019-05-14T04:45:39.476Z,1019.82
2019-05-14T04:46:39.380Z,1019.83
2019-05-14T04:47:40.964Z,1019.84
2019-05-14T04:48:42.311Z,1019.80
2019-05-14T04:49:39.548Z,1019.81
2019-05-14T04:50:40.251Z,1019.81
2019-05-14T04:51:39.664Z,1019.82
2019-05-14T04:52:39.941Z,1019.90
2019-05-14T04:53:39.314Z,1020.06
2019-05-14T04:54:39.371Z,1020.09
2019-05-14T04:55:39.938Z,1020.02
2019-05-14T04:56:39.674Z,1020.40
2019-05-14T04:57:39.192Z,1020.49
2019-05-14T04:58:40.480Z,1020.49
2019-05-14T04:59:39.732Z,1020.51
2019-05-14T05:00:39.191Z,1020.61
2019-05-14T05:01:39.914Z,1020.65
2019-05-14T05:02:39.793Z,1020.66
2019-05-14T05:03:39.864Z,1020.69
2019-05-14T05:04:40.894Z,1020.74
2019-05-14T05:05:39.377Z,1020.81
2019-05-14T05:06:39.719Z,1020.82
2019-05-14T05:07:39.415Z,1020.86
2019-05-14T05:08:39.510Z,1020.88
2019-05-14T05:09:39.858Z,1020.89
2019-05-14T05:10:39.669Z,1020.91
2019-05-14T05:11:39.374Z,1020.93
2019-05-14T05:12:38.728Z,1020.92
2019-05-14T05:13:39.689Z,1020.99
2019-05-14T05:14:38.917Z,1020.99
2019-05-14T05:15:39.401Z,1021.03
2019-05-14T05:16:39.180Z,1021.03
2019-05-14T05:17:46.628Z,1021.12
2019-05-14T05:18:39.742Z,1021.12
2019-05-14T05:19:39.815Z,1021.19
2019-05-14T05:20:39.370Z,1021.29
2019-05-14T05:21:38.736Z,1021.28
2019-05-14T05:22:39.406Z,1021.39
2019-05-14T05:23:38.691Z,1021.35
2019-05-14T05:24:38.072Z,1021.47
2019-05-14T05:25:38.454Z,1021.49
2019-05-14T05:26:39.233Z,1021.58
2019-05-14T05:27:38.230Z,1021.60
2019-05-14T05:28:39.129Z,1021.62
2019-05-14T05:29:39.265Z,1021.67
2019-05-14T05:30:38.564Z,1021.74
2019-05-14T05:31:38.154Z,1021.79
2019-05-14T05:32:38.851Z,1021.89
2019-05-14T05:33:38.369Z,1021.84
2019-05-14T05:34:38.875Z,1021.87
2019-05-14T05:35:40.279Z,1021.92
2019-05-14T05:36:38.056Z,1021.96
2019-05-14T05:37:38.486Z,1021.99
2019-05-14T05:38:39.434Z,1021.99
2019-05-14T05:39:38.553Z,1022.01
2019-05-14T05:40:39.146Z,1022.04
2019-05-14T05:41:38.463Z,1022.16
2019-05-14T05:42:38.556Z,1022.30
2019-05-14T05:43:39.333Z,1022.28
2019-05-14T05:44:39.404Z,1022.33
2019-05-14T05:45:38.152Z,1022.29
2019-05-14T05:46:38.800Z,1022.27
2019-05-14T05:47:39.107Z,1022.35
2019-05-14T05:48:38.915Z,1022.34
2019-05-14T05:49:38.195Z,1022.44
2019-05-14T05:50:38.857Z,1022.44
2019-05-14T05:51:39.240Z,1022.25
2019-05-14T05:52:38.845Z,1022.26
2019-05-14T05:53:39.319Z,1022.23
2019-05-14T05:54:38.379Z,1022.43
2019-05-14T05:55:39.478Z,1022.51
2019-05-14T05:56:38.742Z,1022.59
2019-05-14T05:57:39.177Z,1022.67
2019-05-14T05:58:39.774Z,1022.63
2019-05-14T05:59:39.372Z,1022.52
2019-05-14T06:00:39.843Z,1022.86
2019-05-14T06:01:45.763Z,1022.45
2019-05-14T06:02:39.864Z,1022.66
2019-05-14T06:03:39.320Z,1022.65
2019-05-14T06:04:39.200Z,1022.92
2019-05-14T06:05:38.856Z,1023.09
2019-05-14T06:06:39.033Z,1023.06
2019-05-14T06:07:39.468Z,1023.29
2019-05-14T06:08:38.793Z,1023.33
2019-05-14T06:09:38.407Z,1023.42
2019-05-14T06:10:39.997Z,1023.53
2019-05-14T06:11:38.344Z,1023.65
2019-05-14T06:12:38.766Z,1023.60
2019-05-14T06:13:39.046Z,1023.70
2019-05-14T06:14:38.513Z,1023.81
2019-05-14T06:15:45.704Z,1023.87
2019-05-14T06:16:38.577Z,1022.61
2019-05-14T06:17:39.195Z,1023.79
2019-05-14T06:18:39.349Z,1023.59
2019-05-14T06:19:38.486Z,1023.42
2019-05-14T06:20:38.839Z,1023.23
2019-05-14T06:21:39.781Z,1023.37
2019-05-14T06:22:38.688Z,1023.65
2019-05-14T06:23:38.838Z,1023.74
2019-05-14T06:24:39.101Z,1023.75
2019-05-14T06:25:40.080Z,1023.83
2019-05-14T06:26:38.562Z,1023.90
2019-05-14T06:27:38.529Z,1023.88
2019-05-14T06:28:40.783Z,1023.77
2019-05-14T06:29:38.624Z,1023.75
2019-05-14T06:30:39.504Z,1023.97
2019-05-14T06:31:38.895Z,1024.02
2019-05-14T06:32:38.967Z,1023.86
2019-05-14T06:33:39.331Z,1023.84
2019-05-14T06:34:38.680Z,1022.94
2019-05-14T06:35:39.575Z,1023.91
2019-05-14T06:36:39.541Z,1024.17
2019-05-14T06:37:38.774Z,1024.04
2019-05-14T06:38:39.121Z,1023.37
2019-05-14T06:39:39.215Z,1024.03
2019-05-14T06:40:39.569Z,1023.82
2019-05-14T06:41:42.595Z,1024.07
2019-05-14T06:42:39.569Z,1024.03
2019-05-14T06:43:39.382Z,1023.73
2019-05-14T06:44:38.893Z,1023.41
2019-05-14T06:45:39.268Z,1023.04
2019-05-14T06:46:39.218Z,1022.99
2019-05-14T06:47:38.959Z,1023.07
2019-05-14T06:48:39.659Z,1023.02
2019-05-14T06:49:39.005Z,1023.17
2019-05-14T06:50:39.372Z,1023.27
2019-05-14T06:51:39.476Z,1023.38
2019-05-14T06:52:39.075Z,1023.23
2019-05-14T06:53:39.470Z,1023.16
2019-05-14T06:54:39.109Z,1023.05
2019-05-14T06:55:39.419Z,1023.00
2019-05-14T06:56:39.149Z,1023.07
2019-05-14T06:57:39.558Z,1023.08
2019-05-14T06:58:39.226Z,1023.02
2019-05-14T06:59:39.219Z,1022.78
2019-05-14T07:00:39.616Z,1022.75
2019-05-14T07:01:39.253Z,1022.79
2019-05-14T07:02:43.673Z,1022.84
2019-05-14T07:03:39.298Z,1022.79
2019-05-14T07:04:39.634Z,1022.86
2019-05-14T07:05:39.340Z,1022.88
2019-05-14T07:06:39.365Z,1022.92
2019-05-14T07:07:40.352Z,1023.01
2019-05-14T07:08:39.517Z,1023.01
2019-05-14T07:09:39.432Z,1022.91
2019-05-14T07:10:39.642Z,1022.97
2019-05-14T07:11:39.486Z,1023.05
2019-05-14T07:12:39.497Z,1023.13
2019-05-14T07:13:39.519Z,1023.16
2019-05-14T07:14:39.546Z,1023.46
2019-05-14T07:15:39.559Z,1023.43
2019-05-14T07:16:39.576Z,1023.32
2019-05-14T07:17:39.606Z,1023.55
2019-05-14T07:18:52.990Z,1023.42
2019-05-14T07:19:39.644Z,1023.47
2019-05-14T07:20:39.663Z,1023.92
2019-05-14T07:21:39.692Z,1024.12
2019-05-14T07:22:39.722Z,1023.75
2019-05-14T07:23:39.728Z,1024.13
2019-05-14T07:24:40.668Z,1024.33
2019-05-14T07:25:39.893Z,1024.44
2019-05-14T07:26:39.794Z,1024.52
2019-05-14T07:27:39.814Z,1024.47
2019-05-14T07:28:42.525Z,1024.88
2019-05-14T07:29:39.857Z,1025.21
2019-05-14T07:30:39.883Z,1025.55
2019-05-14T07:31:39.905Z,1025.55
2019-05-14T07:32:39.931Z,1025.63
2019-05-14T07:33:39.946Z,1025.88
2019-05-14T07:34:39.964Z,1025.56
2019-05-14T07:35:39.985Z,1026.25
2019-05-14T07:36:40.005Z,1025.63
2019-05-14T07:37:40.040Z,1023.21
2019-05-14T07:38:40.050Z,1020.68
2019-05-14T07:39:40.068Z,1020.21
2019-05-14T07:40:40.095Z,1020.20
2019-05-14T07:41:40.107Z,1020.10
2019-05-14T07:42:40.128Z,1020.16
2019-05-14T07:43:40.148Z,1020.12
2019-05-14T07:44:40.170Z,1020.11
2019-05-14T07:45:40.198Z,1020.06
2019-05-14T07:46:40.212Z,1020.00
2019-05-14T07:47:40.235Z,1020.07
2019-05-14T07:48:40.268Z,1020.07
2019-05-14T07:49:40.278Z,1020.01
2019-05-14T07:50:40.297Z,1019.98
2019-05-14T07:51:40.322Z,1019.96
2019-05-14T07:52:45.353Z,1019.95
2019-05-14T07:53:42.547Z,1019.95
2019-05-14T07:54:40.387Z,1019.94
2019-05-14T07:55:40.403Z,1019.91
2019-05-14T07:56:40.436Z,1019.90
2019-05-14T07:57:40.454Z,1019.90
2019-05-14T07:58:40.471Z,1019.88
2019-05-14T07:59:40.488Z,1019.89
2019-05-14T08:00:40.533Z,1019.86
2019-05-14T08:01:40.542Z,1019.88
2019-05-14T08:02:40.555Z,1019.92
2019-05-14T08:03:40.576Z,1019.88
2019-05-14T08:04:40.593Z,1019.84
2019-05-14T08:05:40.617Z,1019.81
2019-05-14T08:06:40.643Z,1019.80
2019-05-14T08:07:40.654Z,1019.80
2019-05-14T08:08:40.677Z,1019.76
2019-05-14T08:09:40.706Z,1019.79
2019-05-14T08:10:40.716Z,1019.80
2019-05-14T08:11:40.740Z,1019.78
2019-05-14T08:12:40.757Z,1019.85
2019-05-14T08:13:42.630Z,1019.78
2019-05-14T08:14:54.866Z,1019.68
2019-05-14T08:15:40.818Z,1019.71
2019-05-14T08:16:40.842Z,1019.69
2019-05-14T08:17:40.866Z,1019.69
2019-05-14T08:18:40.883Z,1019.74
2019-05-14T08:19:40.937Z,1019.72
2019-05-14T08:20:40.913Z,1019.70
2019-05-14T08:21:40.934Z,1019.68
2019-05-14T08:22:40.955Z,1019.71
2019-05-14T08:23:40.973Z,1019.68
2019-05-14T08:24:40.991Z,1019.81
2019-05-14T08:25:41.010Z,1019.71
2019-05-14T08:26:42.985Z,1019.68
2019-05-14T08:27:41.052Z,1019.72
2019-05-14T08:28:41.069Z,1019.64
2019-05-14T08:29:41.087Z,1019.70
2019-05-14T08:30:41.104Z,1019.62
2019-05-14T08:31:41.121Z,1019.61
2019-05-14T08:32:41.141Z,1019.52
2019-05-14T08:33:41.158Z,1019.58
2019-05-14T08:34:41.177Z,1019.55
2019-05-14T08:35:41.198Z,1019.70
2019-05-14T08:36:41.214Z,1019.59
2019-05-14T08:37:41.236Z,1019.63
2019-05-14T08:38:45.399Z,1019.61
2019-05-14T08:39:41.311Z,1019.60
2019-05-14T08:40:41.294Z,1019.52
2019-05-14T08:41:41.308Z,1019.61
2019-05-14T08:42:41.323Z,1019.54
2019-05-14T08:43:41.351Z,1019.54
2019-05-14T08:44:41.359Z,1019.55
2019-05-14T08:45:41.378Z,1019.52
2019-05-14T08:46:44.702Z,1019.56
2019-05-14T08:47:41.414Z,1019.57
2019-05-14T08:48:41.432Z,1019.56
2019-05-14T08:49:46.221Z,1019.49
2019-05-14T08:50:41.467Z,1019.33
2019-05-14T08:51:41.486Z,1019.40
2019-05-14T08:52:41.503Z,1019.40
2019-05-14T08:53:41.522Z,1019.49
2019-05-14T08:54:41.539Z,1019.59
2019-05-14T08:55:41.557Z,1019.50
2019-05-14T08:56:41.579Z,1019.49
2019-05-14T08:57:41.670Z,1019.50
2019-05-14T08:58:41.615Z,1019.49
2019-05-14T08:59:41.657Z,1019.46
2019-05-14T09:00:41.645Z,1019.38
2019-05-14T09:01:57.248Z,1019.45
2019-05-14T09:02:41.681Z,1019.35
2019-05-14T09:03:41.722Z,1019.33
2019-05-14T09:04:43.290Z,1019.34
2019-05-14T09:05:41.740Z,1019.39
2019-05-14T09:06:41.756Z,1019.40
2019-05-14T09:07:41.779Z,1019.25
2019-05-14T09:08:41.803Z,1019.23
2019-05-14T09:09:41.869Z,1019.29
2019-05-14T09:10:41.854Z,1019.31
2019-05-14T09:11:45.340Z,1019.24
2019-05-14T09:12:42.046Z,1019.25
2019-05-14T09:13:41.897Z,1019.15
2019-05-14T09:14:41.912Z,1019.24
2019-05-14T09:15:41.934Z,1019.16
2019-05-14T09:16:46.963Z,1019.24
2019-05-14T09:17:41.956Z,1019.12
2019-05-14T09:18:41.973Z,1019.16
2019-05-14T09:19:57.732Z,1019.15
2019-05-14T09:20:42.014Z,1019.16
2019-05-14T09:21:42.035Z,1019.22
2019-05-14T09:22:42.069Z,1019.23
2019-05-14T09:23:42.251Z,1019.24
2019-05-14T09:24:42.086Z,1019.24
2019-05-14T09:25:46.961Z,1019.31
2019-05-14T09:26:42.121Z,1019.21
2019-05-14T09:27:42.132Z,1019.22
2019-05-14T09:28:42.160Z,1019.19
2019-05-14T09:29:42.211Z,1019.15
2019-05-14T09:30:42.183Z,1019.07
2019-05-14T09:31:42.227Z,1019.04
2019-05-14T09:32:42.223Z,1019.11
2019-05-14T09:33:42.310Z,1019.09
2019-05-14T09:34:42.304Z,1019.09
2019-05-14T09:35:42.280Z,1019.07
2019-05-14T09:36:42.292Z,1019.11
2019-05-14T09:37:42.313Z,1019.06
2019-05-14T09:38:42.796Z,1019.12
2019-05-14T09:39:42.344Z,1019.14
2019-05-14T09:40:42.368Z,1019.16
2019-05-14T09:41:42.379Z,1019.22
2019-05-14T09:42:42.400Z,1019.11
2019-05-14T09:43:42.420Z,1019.11
2019-05-14T09:44:42.569Z,1019.07
2019-05-14T09:45:42.454Z,1019.08
2019-05-14T09:46:42.494Z,1019.05
2019-05-14T09:47:42.486Z,1019.05
2019-05-14T09:48:42.500Z,1019.09
2019-05-14T09:49:42.518Z,1019.08
2019-05-14T09:50:42.545Z,1019.05
2019-05-14T09:51:42.554Z,1018.92
2019-05-14T09:52:42.589Z,1018.95
2019-05-14T09:53:42.603Z,1018.94
2019-05-14T09:54:44.183Z,1018.92
2019-05-14T09:55:42.751Z,1018.91
2019-05-14T09:56:42.683Z,1018.88
2019-05-14T09:57:42.661Z,1018.93
2019-05-14T09:58:42.678Z,1018.82
2019-05-14T09:59:42.695Z,1018.83
2019-05-14T10:00:42.720Z,1018.76
2019-05-14T10:01:42.745Z,1018.86
2019-05-14T10:02:42.758Z,1018.87
2019-05-14T10:03:42.775Z,1018.90
2019-05-14T10:04:42.796Z,1018.91
2019-05-14T10:05:42.875Z,1018.86
2019-05-14T10:06:42.833Z,1018.80
2019-05-14T10:07:42.840Z,1018.88
2019-05-14T10:08:42.857Z,1018.89
2019-05-14T10:09:42.879Z,1018.81
2019-05-14T10:10:42.914Z,1018.79
2019-05-14T10:11:42.923Z,1018.90
2019-05-14T10:12:52.416Z,1018.88
2019-05-14T10:13:42.957Z,1018.85
2019-05-14T10:14:42.973Z,1018.83
2019-05-14T10:15:42.989Z,1018.76
2019-05-14T10:16:43.006Z,1018.83
2019-05-14T10:17:43.019Z,1018.79
2019-05-14T10:18:43.035Z,1018.80
2019-05-14T10:19:43.068Z,1018.71
2019-05-14T10:20:45.894Z,1018.71
2019-05-14T10:21:43.097Z,1018.67
2019-05-14T10:22:43.117Z,1018.88
2019-05-14T10:23:43.131Z,1018.86
2019-05-14T10:24:43.264Z,1018.85
2019-05-14T10:25:43.162Z,1018.79
2019-05-14T10:26:43.203Z,1018.84
2019-05-14T10:27:43.195Z,1018.80
2019-05-14T10:28:43.604Z,1018.76
2019-05-14T10:29:43.235Z,1018.74
2019-05-14T10:30:43.251Z,1018.61
2019-05-14T10:31:43.268Z,1018.74
2019-05-14T10:32:43.326Z,1018.74
2019-05-14T10:33:43.307Z,1018.76
2019-05-14T10:34:43.326Z,1018.74
2019-05-14T10:35:43.339Z,1018.76
2019-05-14T10:36:43.361Z,1018.69
2019-05-14T10:37:43.384Z,1018.75
2019-05-14T10:38:43.396Z,1018.73
2019-05-14T10:39:43.418Z,1018.71
2019-05-14T10:40:43.432Z,1018.72
2019-05-14T10:41:43.452Z,1018.72
2019-05-14T10:42:43.485Z,1018.76
2019-05-14T10:43:43.495Z,1018.76
2019-05-14T10:44:43.516Z,1018.70
2019-05-14T10:45:43.526Z,1018.71
2019-05-14T10:46:43.551Z,1018.67
2019-05-14T10:47:43.561Z,1018.54
2019-05-14T10:48:43.580Z,1018.49
2019-05-14T10:49:43.601Z,1018.48
2019-05-14T10:50:56.116Z,1018.48
2019-05-14T10:51:43.639Z,1018.49
2019-05-14T10:52:43.667Z,1018.50
2019-05-14T10:53:43.697Z,1018.45
2019-05-14T10:54:55.460Z,1018.53
2019-05-14T10:55:43.716Z,1018.55
2019-05-14T10:56:43.739Z,1018.44
2019-05-14T10:57:43.765Z,1018.41
2019-05-14T10:58:43.767Z,1018.42
2019-05-14T10:59:43.787Z,1018.39
2019-05-14T11:00:43.814Z,1018.42
2019-05-14T11:01:43.820Z,1018.36
2019-05-14T11:02:43.840Z,1018.39
2019-05-14T11:03:43.886Z,1018.44
2019-05-14T11:04:43.876Z,1018.46
2019-05-14T11:05:43.901Z,1018.48
2019-05-14T11:06:43.922Z,1018.44
2019-05-14T11:07:43.932Z,1018.42
2019-05-14T11:08:43.949Z,1018.42
2019-05-14T11:09:43.972Z,1018.34
2019-05-14T11:10:43.989Z,1018.35
2019-05-14T11:11:44.005Z,1018.28
2019-05-14T11:12:44.025Z,1018.20
2019-05-14T11:13:44.046Z,1018.35
2019-05-14T11:14:44.073Z,1018.28
2019-05-14T11:15:44.084Z,1018.38
2019-05-14T11:16:44.103Z,1018.36
2019-05-14T11:17:44.122Z,1018.34
2019-05-14T11:18:44.138Z,1018.30
2019-05-14T11:19:44.153Z,1018.26
2019-05-14T11:20:44.169Z,1018.22
2019-05-14T11:21:44.197Z,1018.17
2019-05-14T11:22:44.317Z,1018.15
2019-05-14T11:23:44.229Z,1018.17
2019-05-14T11:24:44.250Z,1018.15
2019-05-14T11:25:44.266Z,1018.12
2019-05-14T11:26:44.299Z,1018.12
2019-05-14T11:27:44.302Z,1018.09
2019-05-14T11:28:44.335Z,1018.08
2019-05-14T11:29:44.348Z,1018.04
2019-05-14T11:30:44.430Z,1018.19
2019-05-14T11:31:44.378Z,1018.20
2019-05-14T11:32:44.392Z,1018.12
2019-05-14T11:33:44.414Z,1018.15
2019-05-14T11:34:44.432Z,1018.22
2019-05-14T11:35:44.444Z,1017.98
2019-05-14T11:36:44.466Z,1018.01
2019-05-14T11:37:44.617Z,1017.99
2019-05-14T11:38:44.513Z,1018.03
2019-05-14T11:39:44.519Z,1018.09
2019-05-14T11:40:44.578Z,1017.94
2019-05-14T11:41:44.552Z,1017.99
2019-05-14T11:42:44.576Z,1017.83
2019-05-14T11:43:44.603Z,1017.90
2019-05-14T11:44:44.608Z,1017.86
2019-05-14T11:45:44.632Z,1017.85
2019-05-14T11:46:52.210Z,1017.88
2019-05-14T11:47:44.669Z,1017.79
2019-05-14T11:48:44.686Z,1017.79
2019-05-14T11:49:44.702Z,1017.78
2019-05-14T11:50:44.721Z,1017.78
2019-05-14T11:52:00.703Z,1017.76
2019-05-14T11:52:44.756Z,1017.73
2019-05-14T11:53:44.774Z,1017.68
2019-05-14T11:54:44.791Z,1017.79
2019-05-14T11:55:44.810Z,1017.83
2019-05-14T11:56:44.827Z,1017.69
2019-05-14T11:57:44.849Z,1017.65
2019-05-14T11:58:44.868Z,1017.57
2019-05-14T11:59:44.884Z,1017.65
2019-05-14T12:00:44.904Z,1017.65
2019-05-14T12:01:44.920Z,1017.62
2019-05-14T12:02:44.944Z,1017.53
2019-05-14T12:03:44.963Z,1017.57
2019-05-14T12:04:44.981Z,1017.60
2019-05-14T12:05:44.998Z,1017.70